createdAt,value
2022-11-09T00:01:40.503Z,19.90
2022-11-09T00:04:07.998Z,17.85
2022-11-09T00:06:35.774Z,19.33
2022-11-09T00:09:07.709Z,19.70
2022-11-09T00:11:35.849Z,20.02
2022-11-09T00:14:05.384Z,18.45
2022-11-09T00:16:32.231Z,20.70
2022-11-09T00:18:59.219Z,21.13
2022-11-09T00:21:25.849Z,20.58
2022-11-09T00:23:55.685Z,22.17
2022-11-09T00:26:22.771Z,23.55
2022-11-09T00:28:50.203Z,21.58
2022-11-09T00:31:20.962Z,21.35
2022-11-09T00:33:52.299Z,22.20
2022-11-09T00:36:20.212Z,21.70
2022-11-09T00:38:59.778Z,20.60
2022-11-09T00:41:27.242Z,23.20
2022-11-09T00:43:53.874Z,21.17
2022-11-09T00:46:21.229Z,22.02
2022-11-09T00:48:47.989Z,21.42
2022-11-09T00:51:14.949Z,23.45
2022-11-09T00:53:42.866Z,22.05
2022-11-09T00:56:13.428Z,22.60
2022-11-09T00:58:41.151Z,22.65
2022-11-09T01:01:14.031Z,22.30
2022-11-09T01:03:41.026Z,22.58
2022-11-09T01:06:08.208Z,21.25
2022-11-09T01:08:35.731Z,22.30
2022-11-09T01:11:07.518Z,23.40
2022-11-09T01:13:34.796Z,23.33
2022-11-09T01:16:06.257Z,25.00
2022-11-09T01:18:33.844Z,21.25
2022-11-09T01:21:02.864Z,23.92
2022-11-09T01:23:29.722Z,22.58
2022-11-09T01:26:01.301Z,23.05
2022-11-09T01:28:28.535Z,21.52
2022-11-09T01:30:55.720Z,24.85
2022-11-09T01:33:22.492Z,22.52
2022-11-09T01:35:49.394Z,25.00
2022-11-09T01:38:16.035Z,24.38
2022-11-09T01:40:42.688Z,23.88
2022-11-09T01:43:18.447Z,23.70
2022-11-09T01:46:01.838Z,23.38
2022-11-09T01:48:39.190Z,23.87
2022-11-09T01:51:20.435Z,23.55
2022-11-09T01:53:51.899Z,25.58
2022-11-09T01:56:19.606Z,24.85
2022-11-09T01:59:05.939Z,24.92
2022-11-09T02:01:33.366Z,25.42
2022-11-09T02:04:07.315Z,24.05
2022-11-09T02:06:34.450Z,24.90
2022-11-09T02:09:25.741Z,25.30
2022-11-09T02:11:52.380Z,24.05
2022-11-09T02:14:20.863Z,23.52
2022-11-09T02:16:48.444Z,24.90
2022-11-09T02:19:15.205Z,24.27
2022-11-09T02:21:41.994Z,25.40
2022-11-09T02:24:08.874Z,26.50
2022-11-09T02:26:49.444Z,26.55
2022-11-09T02:29:27.219Z,24.60
2022-11-09T02:31:58.651Z,25.00
2022-11-09T02:34:25.718Z,24.58
2022-11-09T02:36:52.567Z,24.05
2022-11-09T02:39:23.217Z,25.88
2022-11-09T02:42:20.965Z,25.70
2022-11-09T02:44:51.619Z,25.17
2022-11-09T02:47:18.181Z,25.92
2022-11-09T02:49:44.891Z,24.63
2022-11-09T02:52:11.601Z,24.75
2022-11-09T02:54:38.212Z,25.92
2022-11-09T02:57:05.263Z,26.48
2022-11-09T02:59:31.902Z,25.95
2022-11-09T03:01:58.809Z,24.35
2022-11-09T03:04:25.535Z,24.33
2022-11-09T03:06:52.234Z,25.33
2022-11-09T03:09:19.408Z,25.25
2022-11-09T03:11:46.013Z,25.25
2022-11-09T03:14:12.716Z,24.63
2022-11-09T03:16:40.152Z,23.30
2022-11-09T03:19:07.702Z,26.17
2022-11-09T03:21:34.654Z,23.48
2022-11-09T03:24:01.570Z,21.60
2022-11-09T03:26:28.218Z,23.55
2022-11-09T03:28:55.263Z,22.98
2022-11-09T03:31:21.870Z,22.70
2022-11-09T03:33:48.445Z,25.60
2022-11-09T03:36:15.458Z,24.70
2022-11-09T03:38:42.120Z,25.13
2022-11-09T03:41:08.755Z,22.02
2022-11-09T03:43:35.751Z,23.88
2022-11-09T03:46:02.328Z,21.83
2022-11-09T03:48:29.049Z,22.92
2022-11-09T03:50:55.699Z,23.45
2022-11-09T03:53:22.584Z,23.42
2022-11-09T03:55:49.496Z,24.60
2022-11-09T03:58:16.099Z,23.73
2022-11-09T04:00:42.731Z,21.55
2022-11-09T04:03:09.392Z,22.45
2022-11-09T04:05:36.140Z,24.88
2022-11-09T04:08:02.902Z,22.80
2022-11-09T04:10:29.530Z,22.92
2022-11-09T04:12:56.165Z,21.27
2022-11-09T04:15:23.309Z,22.77
2022-11-09T04:17:58.339Z,23.67
2022-11-09T04:20:26.133Z,22.30
2022-11-09T04:22:56.588Z,21.85
2022-11-09T04:25:23.559Z,21.48
2022-11-09T04:27:54.893Z,22.05
2022-11-09T04:30:21.515Z,21.60
2022-11-09T04:32:48.184Z,23.05
2022-11-09T04:35:14.858Z,22.73
2022-11-09T04:37:41.520Z,20.15
2022-11-09T04:40:08.759Z,21.95
2022-11-09T04:42:35.363Z,22.73
2022-11-09T04:45:01.995Z,21.65
2022-11-09T04:47:28.598Z,21.85
2022-11-09T04:49:55.427Z,24.60
2022-11-09T04:52:22.119Z,22.48
2022-11-09T04:54:48.736Z,22.90
2022-11-09T04:57:15.331Z,22.05
2022-11-09T04:59:41.989Z,24.60
2022-11-09T05:02:08.604Z,21.33
2022-11-09T05:04:35.202Z,22.33
2022-11-09T05:07:01.913Z,22.60
2022-11-09T05:09:28.565Z,22.08
2022-11-09T05:11:55.175Z,24.40
2022-11-09T05:14:21.782Z,22.75
2022-11-09T05:16:48.422Z,23.23
2022-11-09T05:19:15.140Z,21.73
2022-11-09T05:21:41.917Z,22.08
2022-11-09T05:24:08.910Z,24.15
2022-11-09T05:26:38.455Z,23.40
2022-11-09T05:29:13.306Z,24.60
2022-11-09T05:31:44.539Z,24.20
2022-11-09T05:34:14.630Z,23.90
2022-11-09T05:36:41.301Z,23.13
2022-11-09T05:39:08.035Z,22.17
2022-11-09T05:41:34.813Z,24.38
2022-11-09T05:44:01.414Z,20.85
2022-11-09T05:46:28.112Z,21.77
2022-11-09T05:48:54.729Z,19.92
2022-11-09T05:51:21.365Z,24.35
2022-11-09T05:53:47.948Z,22.13
2022-11-09T05:56:15.811Z,22.38
2022-11-09T05:58:42.880Z,23.60
2022-11-09T06:01:12.587Z,21.50
2022-11-09T06:03:40.492Z,20.08
2022-11-09T06:06:09.181Z,21.85
2022-11-09T06:08:36.323Z,21.25
2022-11-09T06:11:08.518Z,25.08
2022-11-09T06:13:35.959Z,23.75
2022-11-09T06:16:05.057Z,25.13
2022-11-09T06:18:33.237Z,26.73
2022-11-09T06:21:02.726Z,28.55
2022-11-09T06:23:31.741Z,29.63
2022-11-09T06:26:00.838Z,28.98
2022-11-09T06:28:28.168Z,27.83
2022-11-09T06:30:58.017Z,29.08
2022-11-09T06:33:24.828Z,27.45
2022-11-09T06:35:56.187Z,28.60
2022-11-09T06:38:23.352Z,24.75
2022-11-09T06:40:54.428Z,24.15
2022-11-09T06:43:21.500Z,25.00
2022-11-09T06:45:48.587Z,21.08
2022-11-09T06:48:15.242Z,21.50
2022-11-09T06:50:42.178Z,20.40
2022-11-09T06:53:13.679Z,20.55
2022-11-09T06:55:43.392Z,19.73
2022-11-09T06:58:18.477Z,20.15
2022-11-09T07:00:46.086Z,22.50
2022-11-09T07:03:18.797Z,22.02
2022-11-09T07:05:46.650Z,21.25
2022-11-09T07:08:14.155Z,20.27
2022-11-09T07:10:41.506Z,21.77
2022-11-09T07:13:09.133Z,19.40
2022-11-09T07:15:37.637Z,19.60
2022-11-09T07:18:06.796Z,19.25
2022-11-09T07:20:33.476Z,19.80
2022-11-09T07:23:00.105Z,19.50
2022-11-09T07:25:27.562Z,17.73
2022-11-09T07:27:54.563Z,18.58
2022-11-09T07:30:21.468Z,16.23
2022-11-09T07:35:35.015Z,16.27
2022-11-09T07:38:02.313Z,15.80
2022-11-09T07:40:29.833Z,14.77
2022-11-09T07:43:00.978Z,14.82
2022-11-09T07:45:31.684Z,15.55
2022-11-09T07:48:00.017Z,15.10
2022-11-09T07:50:27.737Z,15.70
2022-11-09T07:52:58.587Z,15.88
2022-11-09T07:55:26.502Z,15.40
2022-11-09T07:58:19.556Z,15.43
2022-11-09T08:00:46.191Z,14.95
2022-11-09T08:03:13.170Z,14.77
2022-11-09T08:05:40.594Z,15.32
2022-11-09T08:08:10.482Z,20.83
2022-11-09T08:10:37.577Z,27.80
2022-11-09T08:13:07.149Z,30.58
2022-11-09T08:15:35.059Z,15.68
2022-11-09T08:18:04.267Z,14.57
2022-11-09T08:20:31.630Z,15.05
2022-11-09T08:23:03.267Z,13.23
2022-11-09T08:25:31.650Z,16.27
2022-11-09T08:27:58.551Z,20.42
2022-11-09T08:30:28.147Z,22.35
2022-11-09T08:32:54.960Z,32.90
2022-11-09T08:35:24.349Z,31.00
2022-11-09T08:37:52.773Z,30.33
2022-11-09T08:40:22.486Z,28.00
2022-11-09T08:42:49.750Z,30.00
2022-11-09T08:45:17.213Z,16.60
2022-11-09T08:47:44.118Z,18.92
2022-11-09T08:50:12.807Z,14.30
2022-11-09T08:52:40.402Z,21.83
2022-11-09T08:55:07.987Z,20.05
2022-11-09T08:57:35.927Z,14.40
2022-11-09T09:00:02.758Z,16.73
2022-11-09T09:02:29.369Z,14.80
2022-11-09T09:04:59.168Z,15.65
2022-11-09T09:07:26.220Z,14.68
2022-11-09T09:09:52.784Z,14.73
2022-11-09T09:12:19.420Z,18.20
2022-11-09T09:14:46.024Z,15.10
2022-11-09T09:17:12.689Z,15.25
2022-11-09T09:19:39.424Z,14.32
2022-11-09T09:22:06.110Z,15.98
2022-11-09T09:24:35.871Z,17.88
2022-11-09T09:27:03.067Z,15.50
2022-11-09T09:29:29.703Z,16.08
2022-11-09T09:31:56.314Z,15.05
2022-11-09T09:34:22.978Z,14.40
2022-11-09T09:36:55.465Z,19.02
2022-11-09T09:39:22.254Z,17.92
2022-11-09T09:41:58.478Z,14.38
2022-11-09T09:44:43.961Z,14.18
2022-11-09T09:47:12.570Z,15.52
2022-11-09T09:50:28.869Z,14.48
2022-11-09T09:53:30.372Z,15.15
2022-11-09T09:56:12.732Z,15.73
2022-11-09T09:58:51.506Z,16.27
2022-11-09T10:01:20.859Z,16.00
2022-11-09T10:03:48.722Z,16.05
2022-11-09T10:06:35.082Z,16.35
2022-11-09T10:09:07.719Z,16.17
2022-11-09T10:12:01.331Z,16.13
2022-11-09T10:14:34.080Z,16.30
2022-11-09T10:17:06.710Z,15.32
2022-11-09T10:19:45.442Z,14.90
2022-11-09T10:22:22.232Z,16.15
2022-11-09T10:25:37.516Z,13.95
2022-11-09T10:28:12.863Z,13.43
2022-11-09T10:30:40.232Z,15.60
2022-11-09T10:33:09.698Z,14.57
2022-11-09T10:36:08.035Z,15.88
2022-11-09T10:38:44.832Z,15.32
2022-11-09T10:41:33.110Z,16.92
2022-11-09T10:44:00.138Z,16.63
2022-11-09T10:46:28.877Z,16.98
2022-11-09T10:48:56.343Z,14.07
2022-11-09T10:51:34.100Z,16.45
2022-11-09T10:54:21.780Z,15.52
2022-11-09T10:57:06.100Z,15.02
2022-11-09T10:59:38.007Z,16.17
2022-11-09T11:02:24.666Z,18.15
2022-11-09T11:05:12.885Z,15.63
2022-11-09T11:07:39.561Z,14.32
2022-11-09T11:10:15.412Z,14.82
2022-11-09T11:12:57.776Z,13.35
2022-11-09T11:15:38.223Z,13.40
2022-11-09T11:18:12.868Z,13.90
2022-11-09T11:20:39.761Z,15.02
2022-11-09T11:23:09.467Z,14.90
2022-11-09T11:25:54.910Z,13.35
2022-11-09T11:28:33.521Z,15.40
2022-11-09T11:31:00.484Z,16.15
2022-11-09T11:33:27.149Z,17.75
2022-11-09T11:35:59.090Z,18.83
2022-11-09T11:38:38.087Z,13.60
2022-11-09T11:41:23.157Z,14.30
2022-11-09T11:44:08.548Z,12.90
2022-11-09T11:47:16.739Z,11.63
2022-11-09T11:50:11.089Z,10.80
2022-11-09T11:52:56.201Z,12.13
2022-11-09T11:55:31.665Z,10.82
2022-11-09T11:58:14.125Z,11.77
2022-11-09T12:01:07.221Z,11.68
2022-11-09T12:03:58.834Z,10.48
2022-11-09T12:07:01.100Z,10.85
2022-11-09T12:09:43.965Z,11.27
2022-11-09T12:12:13.591Z,9.90
2022-11-09T12:14:43.202Z,9.27
2022-11-09T12:17:17.155Z,10.45
2022-11-09T12:20:07.127Z,9.73
2022-11-09T12:23:04.590Z,10.55
2022-11-09T12:25:44.593Z,10.98
2022-11-09T12:28:32.118Z,13.55
2022-11-09T12:31:24.642Z,10.00
2022-11-09T12:33:59.093Z,10.82
2022-11-09T12:36:49.901Z,10.55
2022-11-09T12:39:33.063Z,10.68
2022-11-09T12:42:09.792Z,11.18
2022-11-09T12:44:46.720Z,11.02
2022-11-09T12:47:17.721Z,11.38
2022-11-09T12:49:46.715Z,11.88
2022-11-09T12:52:20.612Z,11.70
2022-11-09T12:54:49.952Z,12.73
2022-11-09T12:57:24.392Z,12.23
2022-11-09T12:59:59.071Z,10.40
2022-11-09T13:02:33.777Z,11.40
2022-11-09T13:05:03.512Z,9.30
2022-11-09T13:07:40.416Z,10.32
2022-11-09T13:10:25.248Z,9.98
2022-11-09T13:13:02.542Z,10.30
2022-11-09T13:15:32.588Z,9.90
2022-11-09T13:18:19.506Z,10.52
2022-11-09T13:20:55.274Z,9.40
2022-11-09T13:26:32.940Z,10.63
2022-11-09T13:29:15.019Z,10.45
2022-11-09T13:32:12.724Z,9.90
2022-11-09T13:34:50.221Z,9.27
2022-11-09T13:37:41.855Z,9.15
2022-11-09T13:40:33.094Z,10.90
2022-11-09T13:43:02.879Z,10.43
2022-11-09T13:45:44.239Z,9.40
2022-11-09T13:48:38.848Z,9.85
2022-11-09T13:51:09.793Z,10.05
2022-11-09T13:53:36.832Z,10.63
2022-11-09T13:56:27.229Z,8.95
2022-11-09T13:58:57.713Z,9.82
2022-11-09T14:01:26.112Z,10.60
2022-11-09T14:03:52.829Z,9.73
2022-11-09T14:06:20.558Z,10.60
2022-11-09T14:08:47.751Z,11.60
2022-11-09T14:11:23.253Z,12.73
2022-11-09T14:14:34.504Z,10.73
2022-11-09T14:17:12.834Z,11.40
2022-11-09T14:20:11.883Z,12.98
2022-11-09T14:22:40.443Z,13.27
2022-11-09T14:25:18.536Z,15.00
2022-11-09T14:27:57.559Z,17.27
2022-11-09T14:30:30.805Z,18.17
2022-11-09T14:33:01.265Z,20.20
2022-11-09T14:35:33.345Z,19.75
2022-11-09T14:38:13.068Z,15.77
2022-11-09T14:40:45.161Z,15.98
2022-11-09T14:43:38.826Z,16.05
2022-11-09T14:46:14.426Z,14.18
2022-11-09T14:48:49.394Z,18.25
2022-11-09T14:51:16.714Z,13.32
2022-11-09T14:53:44.346Z,11.60
2022-11-09T14:56:14.020Z,9.82
2022-11-09T14:58:43.617Z,10.15
2022-11-09T15:01:20.954Z,11.32
2022-11-09T15:04:05.970Z,10.30
2022-11-09T15:06:33.993Z,10.43
2022-11-09T15:09:04.878Z,10.45
2022-11-09T15:11:41.372Z,10.25
2022-11-09T15:14:15.575Z,10.90
2022-11-09T15:16:42.759Z,10.15
2022-11-09T15:19:23.392Z,9.65
2022-11-09T15:21:50.244Z,9.75
2022-11-09T15:24:19.027Z,11.25
2022-11-09T15:26:48.131Z,11.52
2022-11-09T15:29:34.958Z,11.23
2022-11-09T15:32:10.776Z,11.75
2022-11-09T15:34:44.438Z,11.93
2022-11-09T15:37:47.101Z,12.93
2022-11-09T15:40:16.659Z,13.60
2022-11-09T15:42:46.197Z,13.27
2022-11-09T15:45:16.245Z,16.42
2022-11-09T15:47:53.583Z,15.70
2022-11-09T15:50:24.374Z,17.10
2022-11-09T15:52:51.588Z,19.00
2022-11-09T15:55:24.931Z,18.55
2022-11-09T15:57:52.722Z,18.88
2022-11-09T16:00:21.497Z,21.27
2022-11-09T16:02:48.658Z,21.05
2022-11-09T16:05:15.903Z,20.88
2022-11-09T16:07:54.609Z,20.60
2022-11-09T16:10:23.547Z,17.73
2022-11-09T16:12:53.424Z,18.20
2022-11-09T16:15:20.571Z,16.73
2022-11-09T16:17:49.815Z,15.48
2022-11-09T16:20:20.842Z,14.20
2022-11-09T16:22:48.030Z,14.02
2022-11-09T16:25:15.285Z,13.52
2022-11-09T16:27:50.947Z,12.43
2022-11-09T16:30:19.470Z,14.70
2022-11-09T16:32:46.442Z,13.90
2022-11-09T16:35:29.007Z,12.60
2022-11-09T16:37:58.169Z,12.20
2022-11-09T16:40:25.951Z,14.27
2022-11-09T16:42:52.716Z,12.70
2022-11-09T16:45:19.992Z,12.77
2022-11-09T16:47:53.512Z,11.38
2022-11-09T16:50:20.235Z,13.20
2022-11-09T16:52:46.873Z,12.63
2022-11-09T16:55:13.482Z,12.65
2022-11-09T16:57:40.162Z,12.75
2022-11-09T17:00:08.228Z,13.77
2022-11-09T17:02:35.514Z,11.15
2022-11-09T17:05:02.291Z,14.48
2022-11-09T17:07:29.077Z,19.88
2022-11-09T17:09:56.036Z,20.75
2022-11-09T17:12:22.724Z,20.17
2022-11-09T17:14:49.734Z,21.67
2022-11-09T17:17:22.244Z,21.70
2022-11-09T17:19:49.616Z,21.20
2022-11-09T17:22:17.079Z,21.70
2022-11-09T17:24:46.801Z,21.27
2022-11-09T17:27:13.823Z,20.02
2022-11-09T17:29:40.570Z,16.75
2022-11-09T17:32:09.019Z,17.27
2022-11-09T17:34:36.063Z,19.15
2022-11-09T17:37:05.047Z,18.48
2022-11-09T17:39:32.821Z,18.30
2022-11-09T17:41:59.612Z,19.88
2022-11-09T17:44:26.309Z,18.10
2022-11-09T17:46:53.024Z,16.58
2022-11-09T17:49:19.586Z,19.20
2022-11-09T17:51:46.237Z,21.73
2022-11-09T17:54:14.787Z,21.10
2022-11-09T17:56:41.523Z,22.65
2022-11-09T17:59:08.457Z,22.25
2022-11-09T18:01:41.141Z,21.50
2022-11-09T18:04:10.416Z,17.60
2022-11-09T18:06:37.862Z,18.52
2022-11-09T18:11:51.957Z,16.88
2022-11-09T18:14:18.938Z,18.77
2022-11-09T18:16:45.672Z,18.05
2022-11-09T18:19:12.780Z,17.83
2022-11-09T18:21:39.580Z,17.92
2022-11-09T18:24:06.667Z,23.38
2022-11-09T18:26:33.494Z,22.13
2022-11-09T18:29:00.407Z,20.73
2022-11-09T18:31:27.258Z,21.90
2022-11-09T18:33:54.040Z,22.90
2022-11-09T18:36:21.816Z,19.42
2022-11-09T18:38:51.262Z,20.00
2022-11-09T18:41:22.012Z,42.80
2022-11-09T18:43:50.525Z,54.72
2022-11-09T18:46:19.985Z,29.85
2022-11-09T18:48:51.040Z,78.63
2022-11-09T18:51:18.370Z,25.25
2022-11-09T18:53:46.682Z,24.13
2022-11-09T18:56:21.732Z,26.38
2022-11-09T18:58:50.312Z,36.85
2022-11-09T19:01:17.029Z,59.72
2022-11-09T19:03:43.649Z,77.78
2022-11-09T19:06:16.502Z,50.90
2022-11-09T19:09:02.049Z,42.53
2022-11-09T19:11:30.254Z,31.33
2022-11-09T19:13:57.015Z,28.83
2022-11-09T19:16:25.306Z,27.10
2022-11-09T19:18:52.379Z,25.08
2022-11-09T19:21:24.786Z,25.33
2022-11-09T19:23:52.255Z,61.75
2022-11-09T19:26:19.223Z,33.63
2022-11-09T19:28:46.041Z,50.30
2022-11-09T19:31:18.165Z,27.95
2022-11-09T19:33:44.906Z,25.88
2022-11-09T19:38:59.689Z,27.55
2022-11-09T19:41:26.598Z,31.50
2022-11-09T19:43:55.999Z,27.60
2022-11-09T19:46:23.130Z,28.70
2022-11-09T19:48:50.436Z,28.00
2022-11-09T19:51:18.455Z,27.52
2022-11-09T19:53:53.180Z,26.95
2022-11-09T19:56:21.249Z,157.40
2022-11-09T19:58:50.345Z,72.45
2022-11-09T20:01:18.162Z,30.27
2022-11-09T20:03:44.966Z,102.60
2022-11-09T20:06:11.637Z,71.55
2022-11-09T20:08:38.430Z,31.05
2022-11-09T20:11:10.567Z,31.45
2022-11-09T20:13:38.609Z,61.25
2022-11-09T20:16:08.858Z,43.70
2022-11-09T20:18:38.139Z,63.17
2022-11-09T20:21:08.764Z,36.42
2022-11-09T20:23:35.391Z,47.10
2022-11-09T20:26:10.186Z,69.68
2022-11-09T20:28:37.131Z,62.55
2022-11-09T20:31:15.128Z,50.03
2022-11-09T20:33:42.376Z,41.53
2022-11-09T20:36:09.418Z,46.03
2022-11-09T20:38:36.513Z,41.90
2022-11-09T20:41:05.875Z,43.13
2022-11-09T20:43:33.337Z,48.75
2022-11-09T20:46:08.362Z,53.35
2022-11-09T20:51:23.479Z,38.15
2022-11-09T20:53:50.788Z,32.47
2022-11-09T20:56:18.599Z,29.23
2022-11-09T20:58:45.671Z,30.83
2022-11-09T21:01:15.817Z,31.08
2022-11-09T21:03:43.589Z,30.10
2022-11-09T21:06:11.713Z,30.02
2022-11-09T21:08:39.041Z,32.55
2022-11-09T21:11:08.119Z,30.67
2022-11-09T21:13:35.267Z,31.30
2022-11-09T21:16:10.265Z,30.40
2022-11-09T21:18:36.991Z,28.83
2022-11-09T21:21:06.156Z,30.77
2022-11-09T21:23:51.315Z,29.75
2022-11-09T21:26:36.622Z,29.30
2022-11-09T21:29:22.740Z,29.00
2022-11-09T21:31:49.532Z,29.02
2022-11-09T21:34:16.331Z,30.77
2022-11-09T21:36:44.107Z,31.08
2022-11-09T21:39:11.191Z,30.83
2022-11-09T21:41:38.570Z,30.58
2022-11-09T21:44:08.047Z,32.42
2022-11-09T21:46:36.382Z,29.38
2022-11-09T21:49:04.307Z,29.40
2022-11-09T21:51:31.594Z,29.80
2022-11-09T21:53:58.786Z,31.05
2022-11-09T21:56:25.829Z,31.67
2022-11-09T21:58:52.814Z,31.05
2022-11-09T22:01:20.453Z,29.52
2022-11-09T22:03:47.772Z,30.33
2022-11-09T22:06:15.722Z,32.20
2022-11-09T22:08:42.915Z,33.42
2022-11-09T22:11:12.200Z,33.58
2022-11-09T22:13:59.068Z,32.72
2022-11-09T22:16:27.413Z,34.80
2022-11-09T22:19:12.381Z,34.25
2022-11-09T22:21:39.049Z,34.75
2022-11-09T22:24:06.016Z,34.22
2022-11-09T22:26:32.785Z,37.92
2022-11-09T22:28:59.748Z,35.05
2022-11-09T22:31:26.775Z,37.90
2022-11-09T22:33:53.724Z,37.10
2022-11-09T22:36:23.344Z,37.35
2022-11-09T22:38:51.165Z,36.35
2022-11-09T22:41:17.819Z,36.90
2022-11-09T22:43:44.945Z,35.92
2022-11-09T22:46:16.883Z,36.65
2022-11-09T22:48:44.753Z,35.70
2022-11-09T22:51:13.179Z,39.75
2022-11-09T22:53:40.409Z,40.67
2022-11-09T22:56:07.837Z,41.33
2022-11-09T22:58:34.492Z,47.70
2022-11-09T23:01:05.967Z,47.80
2022-11-09T23:03:32.790Z,46.63
2022-11-09T23:06:07.782Z,46.10
2022-11-09T23:08:38.408Z,43.45
2022-11-09T23:11:11.565Z,41.10
2022-11-09T23:13:38.174Z,41.92
2022-11-09T23:16:07.599Z,45.35
2022-11-09T23:18:52.833Z,39.03
2022-11-09T23:21:39.706Z,37.67
2022-11-09T23:24:27.963Z,41.08
2022-11-09T23:26:54.599Z,42.38
2022-11-09T23:29:21.182Z,39.75
2022-11-09T23:31:47.799Z,39.53
2022-11-09T23:34:14.395Z,39.00
2022-11-09T23:36:41.002Z,40.13
2022-11-09T23:39:07.603Z,39.95
2022-11-09T23:41:34.257Z,38.38
2022-11-09T23:44:00.899Z,41.15
2022-11-09T23:46:27.534Z,48.20
2022-11-09T23:48:54.190Z,38.03
2022-11-09T23:51:20.863Z,38.60
2022-11-09T23:53:47.452Z,37.55
2022-11-09T23:56:14.041Z,35.30
2022-11-09T23:58:40.670Z,34.88
